createdAt,value
2019-02-20T00:00:09.770Z,20.95
2019-02-20T00:02:38.460Z,17.62
2019-02-20T00:05:06.992Z,21.87
2019-02-20T00:07:35.423Z,27.87
2019-02-20T00:10:23.223Z,18.40
2019-02-20T00:12:51.657Z,24.18
2019-02-20T00:15:20.123Z,25.23
2019-02-20T00:17:48.592Z,20.95
2019-02-20T00:20:17.122Z,25.57
2019-02-20T00:22:45.574Z,24.23
2019-02-20T00:25:14.031Z,18.02
2019-02-20T00:27:42.484Z,22.32
2019-02-20T00:30:11.319Z,23.50
2019-02-20T00:32:39.778Z,22.30
2019-02-20T00:35:08.290Z,25.00
2019-02-20T00:37:36.741Z,22.62
2019-02-20T00:40:08.113Z,23.70
2019-02-20T00:42:36.555Z,25.48
2019-02-20T00:45:15.103Z,23.67
2019-02-20T00:47:45.194Z,22.37
2019-02-20T00:50:14.791Z,23.87
2019-02-20T00:53:03.079Z,21.05
2019-02-20T00:55:31.556Z,19.15
2019-02-20T00:57:59.995Z,20.37
2019-02-20T01:00:28.438Z,18.90
2019-02-20T01:02:56.896Z,15.43
2019-02-20T01:05:25.355Z,19.62
2019-02-20T01:07:53.793Z,18.98
2019-02-20T01:10:22.284Z,21.00
2019-02-20T01:12:50.717Z,18.82
2019-02-20T01:15:19.175Z,15.50
2019-02-20T01:17:47.623Z,18.15
2019-02-20T01:20:16.069Z,18.73
2019-02-20T01:22:44.522Z,19.70
2019-02-20T01:25:13.039Z,20.12
2019-02-20T01:27:41.495Z,15.93
2019-02-20T01:30:11.958Z,21.52
2019-02-20T01:32:40.413Z,19.05
2019-02-20T01:35:08.995Z,18.92
2019-02-20T01:37:37.449Z,18.98
2019-02-20T01:40:06.829Z,19.45
2019-02-20T01:42:35.294Z,13.72
2019-02-20T01:45:04.273Z,21.23
2019-02-20T01:47:32.737Z,14.43
2019-02-20T01:50:01.328Z,17.05
2019-02-20T01:52:29.769Z,16.62
2019-02-20T01:54:58.222Z,16.73
2019-02-20T01:57:26.676Z,23.73
2019-02-20T01:59:55.113Z,21.00
2019-02-20T02:02:23.566Z,12.55
2019-02-20T02:04:52.020Z,20.10
2019-02-20T02:07:20.486Z,24.02
2019-02-20T02:09:48.939Z,19.25
2019-02-20T02:12:17.383Z,12.80
2019-02-20T02:14:45.902Z,19.52
2019-02-20T02:17:14.343Z,26.20
2019-02-20T02:19:42.811Z,16.57
2019-02-20T02:22:11.246Z,22.77
2019-02-20T02:24:39.703Z,21.10
2019-02-20T02:27:08.167Z,16.97
2019-02-20T02:29:36.614Z,24.05
2019-02-20T02:32:05.114Z,18.25
2019-02-20T02:34:33.557Z,17.57
2019-02-20T02:37:01.993Z,18.35
2019-02-20T02:39:30.462Z,18.10
2019-02-20T02:41:58.909Z,16.55
2019-02-20T02:44:27.411Z,20.52
2019-02-20T02:46:55.872Z,13.32
2019-02-20T02:49:24.399Z,20.35
2019-02-20T02:51:52.861Z,14.20
2019-02-20T02:54:21.306Z,15.18
2019-02-20T02:56:49.759Z,17.95
2019-02-20T02:59:18.240Z,20.65
2019-02-20T03:01:46.779Z,20.37
2019-02-20T03:04:15.241Z,14.25
2019-02-20T03:06:43.734Z,21.23
2019-02-20T03:09:12.191Z,18.48
2019-02-20T03:11:40.636Z,18.05
2019-02-20T03:14:09.110Z,18.62
2019-02-20T03:16:37.622Z,21.42
2019-02-20T03:19:06.130Z,23.45
2019-02-20T03:21:34.607Z,17.52
2019-02-20T03:24:03.112Z,17.07
2019-02-20T03:26:31.546Z,20.80
2019-02-20T03:28:59.982Z,21.70
2019-02-20T03:31:28.438Z,20.75
2019-02-20T03:33:56.905Z,20.12
2019-02-20T03:36:25.480Z,17.50
2019-02-20T03:38:54.044Z,21.30
2019-02-20T03:41:22.505Z,23.22
2019-02-20T03:44:10.283Z,24.25
2019-02-20T03:46:58.083Z,23.52
2019-02-20T03:49:26.831Z,21.60
2019-02-20T03:51:55.278Z,25.72
2019-02-20T03:54:23.791Z,21.05
2019-02-20T03:56:52.246Z,27.55
2019-02-20T03:59:20.695Z,24.25
2019-02-20T04:01:49.134Z,21.97
2019-02-20T04:04:17.650Z,21.20
2019-02-20T04:06:46.088Z,23.40
2019-02-20T04:09:14.535Z,29.87
2019-02-20T04:11:43.000Z,26.75
2019-02-20T04:14:11.443Z,31.57
2019-02-20T04:16:39.891Z,24.50
2019-02-20T04:19:08.349Z,24.80
2019-02-20T04:21:36.787Z,25.60
2019-02-20T04:24:05.252Z,20.30
2019-02-20T04:26:35.327Z,26.50
2019-02-20T04:29:03.825Z,32.10
2019-02-20T04:31:32.322Z,28.00
2019-02-20T04:34:00.866Z,24.52
2019-02-20T04:36:29.382Z,27.95
2019-02-20T04:38:57.835Z,24.87
2019-02-20T04:41:26.333Z,26.02
2019-02-20T04:43:54.831Z,25.15
2019-02-20T04:46:23.339Z,26.33
2019-02-20T04:48:51.783Z,34.25
2019-02-20T04:51:20.332Z,28.67
2019-02-20T04:53:48.790Z,24.23
2019-02-20T04:56:17.231Z,24.20
2019-02-20T04:58:47.058Z,32.98
2019-02-20T05:01:15.496Z,28.70
2019-02-20T05:03:43.943Z,25.82
2019-02-20T05:06:12.422Z,24.65
2019-02-20T05:08:40.963Z,21.65
2019-02-20T05:11:09.463Z,25.45
2019-02-20T05:13:37.928Z,27.52
2019-02-20T05:16:06.384Z,23.85
2019-02-20T05:18:34.936Z,29.12
2019-02-20T05:21:03.387Z,24.50
2019-02-20T05:23:31.851Z,23.38
2019-02-20T05:26:00.310Z,23.00
2019-02-20T05:28:28.771Z,25.50
2019-02-20T05:30:57.263Z,31.25
2019-02-20T05:33:25.728Z,23.27
2019-02-20T05:35:54.168Z,30.17
2019-02-20T05:38:22.642Z,25.43
2019-02-20T05:40:51.157Z,24.02
2019-02-20T05:43:19.747Z,26.97
2019-02-20T05:45:48.180Z,27.15
2019-02-20T05:48:16.988Z,24.00
2019-02-20T05:50:45.495Z,22.52
2019-02-20T05:53:14.009Z,25.48
2019-02-20T05:55:42.466Z,28.40
2019-02-20T05:58:10.919Z,23.65
2019-02-20T06:00:39.443Z,29.55
2019-02-20T06:03:07.887Z,28.62
2019-02-20T06:05:36.368Z,27.90
2019-02-20T06:08:04.814Z,25.27
2019-02-20T06:10:33.261Z,28.92
2019-02-20T06:13:01.711Z,29.50
2019-02-20T06:15:30.171Z,30.95
2019-02-20T06:17:58.658Z,27.45
2019-02-20T06:20:27.168Z,33.92
2019-02-20T06:22:55.624Z,28.42
2019-02-20T06:25:24.087Z,33.35
2019-02-20T06:27:52.603Z,30.08
2019-02-20T06:30:21.049Z,28.52
2019-02-20T06:32:49.490Z,31.57
2019-02-20T06:35:17.956Z,27.85
2019-02-20T06:37:46.399Z,25.95
2019-02-20T06:40:14.839Z,24.32
2019-02-20T06:42:43.319Z,29.80
2019-02-20T06:45:12.320Z,31.30
2019-02-20T06:47:40.816Z,28.38
2019-02-20T06:50:09.344Z,27.70
2019-02-20T06:52:37.786Z,32.73
2019-02-20T06:55:09.674Z,27.65
2019-02-20T06:57:38.143Z,32.10
2019-02-20T07:00:09.836Z,28.17
2019-02-20T07:02:38.275Z,29.37
2019-02-20T07:05:30.255Z,32.03
2019-02-20T07:08:28.880Z,38.02
2019-02-20T07:11:25.768Z,28.47
2019-02-20T07:14:25.939Z,28.95
2019-02-20T07:17:03.062Z,26.35
2019-02-20T07:19:40.492Z,27.80
2019-02-20T07:22:27.061Z,30.80
2019-02-20T07:25:13.031Z,30.20
2019-02-20T07:28:17.567Z,33.05
2019-02-20T07:30:46.006Z,37.35
2019-02-20T07:33:14.478Z,31.15
2019-02-20T07:35:42.991Z,33.67
2019-02-20T07:38:11.451Z,29.67
2019-02-20T07:40:39.912Z,34.85
2019-02-20T07:43:08.350Z,32.33
2019-02-20T07:45:36.881Z,32.45
2019-02-20T07:48:05.318Z,33.10
2019-02-20T07:50:33.780Z,35.75
2019-02-20T07:53:02.320Z,32.00
2019-02-20T07:55:30.775Z,33.88
2019-02-20T07:57:59.259Z,33.48
2019-02-20T08:00:27.700Z,33.98
2019-02-20T08:02:56.188Z,33.55
2019-02-20T08:05:24.722Z,30.95
2019-02-20T08:07:53.161Z,32.70
2019-02-20T08:10:21.670Z,32.33
2019-02-20T08:12:50.116Z,35.85
2019-02-20T08:15:18.626Z,33.83
2019-02-20T08:17:47.084Z,36.83
2019-02-20T08:20:15.531Z,36.93
2019-02-20T08:22:43.993Z,32.17
2019-02-20T08:25:12.586Z,30.65
2019-02-20T08:27:41.054Z,39.03
2019-02-20T08:30:12.450Z,37.67
2019-02-20T08:32:40.912Z,31.68
2019-02-20T08:35:11.221Z,31.30
2019-02-20T08:37:39.706Z,33.27
2019-02-20T08:40:13.907Z,31.30
2019-02-20T08:42:42.352Z,31.17
2019-02-20T08:45:12.269Z,27.75
2019-02-20T08:47:40.736Z,35.73
2019-02-20T08:50:11.755Z,32.65
2019-02-20T08:52:40.263Z,28.50
2019-02-20T08:55:10.344Z,24.85
2019-02-20T08:57:38.811Z,30.12
2019-02-20T09:00:12.895Z,31.50
2019-02-20T09:02:41.373Z,29.92
2019-02-20T09:05:11.455Z,29.32
2019-02-20T09:07:39.928Z,33.92
2019-02-20T09:10:10.712Z,31.35
2019-02-20T09:12:39.164Z,36.48
2019-02-20T09:15:10.591Z,30.75
2019-02-20T09:17:39.051Z,31.97
2019-02-20T09:20:10.044Z,28.65
2019-02-20T09:22:39.587Z,32.33
2019-02-20T09:25:19.201Z,40.52
2019-02-20T09:27:40.652Z,31.37
2019-02-20T09:30:14.149Z,37.78
2019-02-20T09:32:42.644Z,39.25
2019-02-20T09:35:11.529Z,32.75
2019-02-20T09:37:39.983Z,34.92
2019-02-20T09:40:16.782Z,38.17
2019-02-20T09:42:48.181Z,33.83
2019-02-20T09:45:16.621Z,41.63
2019-02-20T09:47:45.374Z,42.25
2019-02-20T09:50:13.907Z,38.70
2019-02-20T09:52:51.670Z,38.17
2019-02-20T09:55:13.587Z,35.27
2019-02-20T09:57:42.031Z,35.35
2019-02-20T10:00:16.407Z,34.73
2019-02-20T10:02:44.851Z,36.73
2019-02-20T10:05:13.406Z,35.00
2019-02-20T10:07:41.835Z,31.42
2019-02-20T10:10:11.449Z,37.33
2019-02-20T10:12:39.904Z,44.50
2019-02-20T10:15:13.975Z,37.65
2019-02-20T10:17:42.464Z,32.93
2019-02-20T10:20:11.424Z,43.20
2019-02-20T10:22:39.867Z,37.93
2019-02-20T10:25:10.962Z,30.25
2019-02-20T10:27:39.435Z,36.73
2019-02-20T10:30:16.361Z,34.90
2019-02-20T10:32:44.803Z,34.43
2019-02-20T10:35:13.322Z,40.17
2019-02-20T10:37:41.788Z,32.80
2019-02-20T10:40:11.178Z,30.27
2019-02-20T10:42:39.630Z,35.63
2019-02-20T10:45:12.412Z,36.93
2019-02-20T10:47:40.963Z,30.77
2019-02-20T10:50:13.930Z,39.33
2019-02-20T10:52:42.395Z,34.73
2019-02-20T10:55:11.494Z,34.88
2019-02-20T10:57:39.948Z,35.25
2019-02-20T11:00:23.150Z,35.80
2019-02-20T11:02:43.420Z,31.73
2019-02-20T11:05:11.861Z,33.30
2019-02-20T11:07:40.324Z,33.15
2019-02-20T11:10:08.883Z,28.05
2019-02-20T11:12:37.377Z,30.00
2019-02-20T11:15:07.556Z,36.70
2019-02-20T11:17:37.285Z,30.00
2019-02-20T11:20:11.034Z,36.00
2019-02-20T11:22:39.483Z,32.90
2019-02-20T11:25:10.497Z,31.90
2019-02-20T11:27:39.533Z,34.20
2019-02-20T11:30:11.382Z,29.55
2019-02-20T11:32:39.834Z,30.90
2019-02-20T11:35:09.065Z,28.75
2019-02-20T11:37:37.539Z,31.12
2019-02-20T11:40:08.229Z,30.15
2019-02-20T11:42:36.683Z,28.75
2019-02-20T11:45:10.569Z,27.25
2019-02-20T11:47:39.035Z,28.02
2019-02-20T11:50:10.028Z,33.78
2019-02-20T11:52:38.756Z,30.52
2019-02-20T11:55:09.740Z,29.52
2019-02-20T11:57:38.858Z,33.73
2019-02-20T12:00:14.880Z,34.67
2019-02-20T12:02:43.337Z,38.30
2019-02-20T12:05:12.271Z,34.35
2019-02-20T12:07:40.900Z,28.00
2019-02-20T12:10:16.146Z,30.92
2019-02-20T12:12:44.683Z,30.97
2019-02-20T12:15:13.230Z,33.65
2019-02-20T12:17:41.763Z,30.10
2019-02-20T12:20:10.467Z,25.43
2019-02-20T12:22:38.944Z,28.45
2019-02-20T12:25:09.504Z,27.27
2019-02-20T12:27:37.996Z,30.45
2019-02-20T12:30:11.217Z,28.07
2019-02-20T12:32:39.999Z,27.73
2019-02-20T12:35:09.223Z,26.90
2019-02-20T12:37:37.667Z,34.23
2019-02-20T12:40:08.450Z,30.08
2019-02-20T12:42:36.957Z,26.80
2019-02-20T12:45:07.210Z,25.37
2019-02-20T12:47:35.680Z,25.57
2019-02-20T12:50:06.126Z,27.10
2019-02-20T12:52:34.590Z,22.37
2019-02-20T12:55:03.039Z,24.10
2019-02-20T12:57:31.515Z,24.65
2019-02-20T12:59:59.960Z,28.73
2019-02-20T13:02:28.411Z,23.90
2019-02-20T13:04:56.888Z,31.95
2019-02-20T13:07:25.340Z,23.50
2019-02-20T13:09:53.808Z,26.10
2019-02-20T13:12:22.251Z,31.87
2019-02-20T13:14:50.710Z,24.20
2019-02-20T13:17:19.158Z,25.70
2019-02-20T13:19:47.627Z,24.92
2019-02-20T13:22:16.784Z,24.55
2019-02-20T13:24:45.429Z,23.80
2019-02-20T13:27:22.294Z,26.12
2019-02-20T13:29:44.058Z,29.60
2019-02-20T13:32:12.512Z,33.35
2019-02-20T13:34:40.979Z,25.55
2019-02-20T13:37:09.417Z,26.40
2019-02-20T13:39:37.887Z,30.60
2019-02-20T13:42:06.412Z,29.05
2019-02-20T13:44:35.186Z,26.45
2019-02-20T13:47:04.990Z,27.22
2019-02-20T13:49:33.799Z,28.65
2019-02-20T13:52:02.320Z,27.07
2019-02-20T13:54:30.887Z,32.48
2019-02-20T13:57:01.761Z,26.73
2019-02-20T13:59:29.511Z,25.73
2019-02-20T14:01:58.442Z,25.10
2019-02-20T14:04:26.980Z,26.27
2019-02-20T14:06:55.524Z,33.05
2019-02-20T14:09:24.116Z,27.27
2019-02-20T14:11:52.600Z,30.85
2019-02-20T14:14:21.299Z,31.02
2019-02-20T14:16:49.826Z,28.25
2019-02-20T14:19:18.387Z,27.93
2019-02-20T14:21:46.903Z,32.65
2019-02-20T14:24:15.448Z,30.43
2019-02-20T14:26:43.914Z,28.52
2019-02-20T14:29:12.456Z,24.67
2019-02-20T14:31:42.774Z,28.65
2019-02-20T14:34:11.182Z,27.77
2019-02-20T14:36:39.710Z,31.33
2019-02-20T14:39:08.424Z,29.40
2019-02-20T14:41:36.963Z,24.47
2019-02-20T14:44:05.486Z,26.55
2019-02-20T14:46:34.042Z,25.00
2019-02-20T14:49:02.571Z,29.60
2019-02-20T14:51:31.501Z,36.48
2019-02-20T14:54:00.027Z,28.20
2019-02-20T14:56:28.592Z,27.10
2019-02-20T14:58:57.134Z,27.25
2019-02-20T15:01:25.649Z,26.12
2019-02-20T15:03:54.198Z,29.55
2019-02-20T15:06:22.707Z,28.95
2019-02-20T15:08:51.250Z,28.67
2019-02-20T15:11:19.771Z,27.85
2019-02-20T15:13:48.338Z,29.02
2019-02-20T15:16:16.868Z,28.23
2019-02-20T15:18:45.386Z,26.75
2019-02-20T15:21:13.928Z,26.62
2019-02-20T15:23:42.767Z,24.67
2019-02-20T15:26:11.292Z,30.23
2019-02-20T15:28:39.831Z,26.42
2019-02-20T15:31:08.355Z,24.63
2019-02-20T15:33:36.897Z,23.32
2019-02-20T15:36:05.421Z,26.25
2019-02-20T15:38:33.955Z,24.00
2019-02-20T15:41:02.680Z,23.35
2019-02-20T15:43:31.219Z,20.55
2019-02-20T15:45:59.740Z,21.85
2019-02-20T15:48:28.186Z,22.60
2019-02-20T15:50:56.730Z,23.65
2019-02-20T15:53:25.256Z,24.23
2019-02-20T15:55:53.796Z,22.35
2019-02-20T15:58:22.359Z,23.90
2019-02-20T16:00:50.882Z,26.90
2019-02-20T16:03:19.402Z,21.13
2019-02-20T16:05:47.877Z,24.23
2019-02-20T16:08:16.404Z,20.17
2019-02-20T16:10:44.937Z,22.58
2019-02-20T16:13:13.450Z,19.20
2019-02-20T16:15:41.996Z,24.82
2019-02-20T16:18:11.025Z,21.26
2019-02-20T16:20:39.570Z,24.45
2019-02-20T16:23:08.110Z,20.43
2019-02-20T16:25:36.643Z,17.42
2019-02-20T16:28:05.104Z,24.47
2019-02-20T16:30:34.237Z,18.27
2019-02-20T16:33:02.761Z,14.47
2019-02-20T16:35:31.348Z,15.38
2019-02-20T16:37:59.788Z,14.45
2019-02-20T16:40:28.317Z,11.48
2019-02-20T16:42:56.844Z,11.70
2019-02-20T16:45:25.836Z,11.05
2019-02-20T16:47:54.795Z,10.98
2019-02-20T16:50:23.243Z,15.53
2019-02-20T16:52:51.907Z,11.00
2019-02-20T16:55:22.550Z,10.70
2019-02-20T16:57:56.847Z,11.43
2019-02-20T17:00:22.422Z,16.80
2019-02-20T17:02:51.253Z,12.70
2019-02-20T17:05:19.876Z,11.28
2019-02-20T17:07:48.426Z,18.65
2019-02-20T17:10:17.127Z,10.72
2019-02-20T17:12:45.667Z,11.12
2019-02-20T17:15:15.867Z,7.10
2019-02-20T17:17:44.313Z,13.03
2019-02-20T17:20:14.971Z,11.50
2019-02-20T17:22:43.507Z,11.88
2019-02-20T17:25:31.384Z,11.20
2019-02-20T17:28:05.863Z,9.85
2019-02-20T17:30:30.143Z,16.55
2019-02-20T17:32:58.995Z,12.88
2019-02-20T17:35:27.531Z,12.03
2019-02-20T17:37:56.043Z,11.18
2019-02-20T17:40:24.514Z,9.53
2019-02-20T17:42:52.977Z,9.53
2019-02-20T17:45:21.500Z,9.25
2019-02-20T17:47:50.024Z,10.53
2019-02-20T17:50:20.746Z,7.87
2019-02-20T17:52:49.206Z,9.33
2019-02-20T17:55:17.653Z,10.65
2019-02-20T17:57:46.183Z,10.10
2019-02-20T18:00:18.610Z,11.08
2019-02-20T18:02:47.208Z,13.08
2019-02-20T18:05:15.745Z,14.93
2019-02-20T18:07:49.911Z,16.17
2019-02-20T18:10:14.590Z,9.60
2019-02-20T18:12:43.045Z,10.08
2019-02-20T18:15:13.556Z,10.18
2019-02-20T18:17:42.079Z,11.50
2019-02-20T18:20:11.367Z,9.45
2019-02-20T18:22:39.826Z,12.78
2019-02-20T18:25:10.094Z,9.38
2019-02-20T18:27:38.956Z,11.95
2019-02-20T18:30:14.920Z,8.58
2019-02-20T18:32:43.410Z,10.25
2019-02-20T18:35:19.062Z,9.83
2019-02-20T18:37:47.507Z,9.85
2019-02-20T18:40:18.071Z,9.60
2019-02-20T18:42:46.519Z,10.10
2019-02-20T18:45:15.812Z,11.95
2019-02-20T18:47:44.314Z,7.40
2019-02-20T18:50:14.288Z,8.78
2019-02-20T18:52:42.886Z,10.43
2019-02-20T18:55:12.857Z,10.65
2019-02-20T18:57:41.358Z,9.35
2019-02-20T19:00:15.376Z,9.40
2019-02-20T19:02:43.869Z,10.03
2019-02-20T19:05:12.574Z,8.50
2019-02-20T19:07:41.082Z,13.05
2019-02-20T19:10:13.055Z,6.92
2019-02-20T19:12:56.316Z,8.53
2019-02-20T19:15:36.480Z,10.30
2019-02-20T19:18:24.247Z,11.78
2019-02-20T19:21:04.827Z,13.08
2019-02-20T19:23:55.907Z,8.88
2019-02-20T19:26:27.512Z,12.85
2019-02-20T19:29:24.624Z,9.43
2019-02-20T19:31:58.872Z,8.73
2019-02-20T19:34:45.231Z,10.38
2019-02-20T19:37:35.088Z,9.58
2019-02-20T19:40:06.634Z,10.25
2019-02-20T19:43:03.767Z,14.43
2019-02-20T19:45:44.361Z,6.78
2019-02-20T19:48:30.779Z,10.70
2019-02-20T19:51:10.848Z,13.13
2019-02-20T19:53:44.895Z,10.40
2019-02-20T19:56:34.319Z,13.80
2019-02-20T19:59:14.393Z,11.53
2019-02-20T20:02:27.766Z,13.90
2019-02-20T20:05:13.959Z,9.63
2019-02-20T20:08:20.237Z,10.30
2019-02-20T20:11:20.727Z,10.45
2019-02-20T20:13:52.247Z,9.18
2019-02-20T20:16:40.378Z,11.25
2019-02-20T20:19:28.547Z,11.83
2019-02-20T20:22:14.498Z,8.88
2019-02-20T20:24:48.943Z,12.82
2019-02-20T20:27:38.531Z,13.93
2019-02-20T20:30:19.025Z,13.83
2019-02-20T20:33:20.288Z,10.53
2019-02-20T20:36:11.056Z,12.55
2019-02-20T20:38:45.538Z,11.57
2019-02-20T20:41:31.414Z,10.48
2019-02-20T20:44:31.897Z,10.63
2019-02-20T20:47:12.390Z,16.37
2019-02-20T20:49:43.911Z,8.60
2019-02-20T20:52:26.682Z,10.32
2019-02-20T20:55:00.562Z,17.12
2019-02-20T20:57:43.031Z,12.18
2019-02-20T21:00:36.701Z,16.25
2019-02-20T21:03:08.612Z,13.72
2019-02-20T21:05:56.651Z,11.78
2019-02-20T21:08:52.029Z,16.20
2019-02-20T21:11:29.319Z,15.25
2019-02-20T21:14:19.723Z,16.77
2019-02-20T21:17:00.250Z,15.15
2019-02-20T21:19:34.494Z,14.80
2019-02-20T21:22:18.029Z,16.42
2019-02-20T21:25:15.348Z,16.67
2019-02-20T21:27:46.883Z,15.60
2019-02-20T21:30:48.078Z,12.40
2019-02-20T21:33:51.392Z,11.50
2019-02-20T21:36:26.041Z,13.50
2019-02-20T21:39:18.152Z,19.05
2019-02-20T21:42:04.502Z,14.70
2019-02-20T21:44:44.307Z,14.60
2019-02-20T21:47:18.613Z,12.23
2019-02-20T21:49:50.131Z,14.70
2019-02-20T21:52:39.560Z,14.43
2019-02-20T21:55:30.623Z,16.07
2019-02-20T21:58:07.915Z,18.52
2019-02-20T22:00:58.799Z,15.58
2019-02-20T22:03:55.535Z,12.58
2019-02-20T22:06:32.969Z,20.57
2019-02-20T22:09:09.707Z,17.05
2019-02-20T22:11:59.618Z,14.58
2019-02-20T22:14:51.896Z,18.92
2019-02-20T22:17:43.908Z,15.78
2019-02-20T22:20:24.076Z,17.55
2019-02-20T22:22:58.161Z,20.40
2019-02-20T22:25:38.646Z,17.12
2019-02-20T22:28:34.663Z,15.08
2019-02-20T22:31:18.279Z,18.75
2019-02-20T22:34:05.032Z,17.62
2019-02-20T22:36:59.067Z,16.93
2019-02-20T22:39:39.539Z,17.27
2019-02-20T22:42:16.439Z,20.27
2019-02-20T22:45:04.462Z,15.25
2019-02-20T22:47:38.807Z,17.30
2019-02-20T22:50:27.023Z,15.88
2019-02-20T22:53:26.994Z,15.65
2019-02-20T22:56:35.108Z,12.58
2019-02-20T22:59:09.387Z,18.32
2019-02-20T23:01:53.013Z,17.05
2019-02-20T23:04:27.428Z,19.17
2019-02-20T23:07:07.442Z,22.82
2019-02-20T23:09:44.896Z,19.17
2019-02-20T23:12:37.087Z,19.23
2019-02-20T23:15:06.776Z,18.65
2019-02-20T23:17:35.238Z,17.25
2019-02-20T23:20:04.472Z,20.77
2019-02-20T23:22:33.009Z,15.45
2019-02-20T23:25:01.521Z,15.50
2019-02-20T23:27:30.045Z,15.70
2019-02-20T23:29:58.496Z,22.75
2019-02-20T23:32:26.952Z,16.37
2019-02-20T23:34:55.492Z,19.15
2019-02-20T23:37:23.949Z,19.77
2019-02-20T23:39:52.397Z,21.65
2019-02-20T23:42:20.866Z,19.02
2019-02-20T23:44:49.387Z,19.80
2019-02-20T23:47:17.838Z,18.82
2019-02-20T23:49:46.275Z,16.65
2019-02-20T23:52:14.739Z,21.25
2019-02-20T23:54:43.203Z,18.20
2019-02-20T23:57:11.670Z,19.32
2019-02-20T23:59:40.115Z,19.02
